Nearby METAR Reports

 

KSJC - San Jose, California, USA
Distance from station: NØ 14km
Opdateret: 10/12/2018 07:53
Mist, Delvist skyet
Mist, Delvist skyet
 Vind retning calm
Vind: Vindstille
Temperatur: 9°C
Dugpunkt: 7°C
Fugtighed: 87%
Barometer: 1024.7 hPa
Oversigt: Mist
Clouds: Delvist skyet
Visibility: 8 km
Cloud details: Few Clouds 91 m
Few Clouds 305 m
Delvist skyet 6096 m
2018/12/10 06:53 KSJC 100653Z 00000KT 5SM BR FEW003 FEW010 SCT200 09/07 A3026 RMK AO2 SLP244 T00890072
KNUQ - Moffett Nas/Mtn, California, USA
Distance from station: N 14km
Opdateret: 10/12/2018 07:56
Mist, Klart
Mist, Klart
 Vind retning calm
Vind: Vindstille
Temperatur: 8°C
Dugpunkt: 7°C
Fugtighed: 93%
Barometer: 1024.7 hPa
Oversigt: Mist
Clouds: Klart
Visibility: 8 km
2018/12/10 06:56 KNUQ 100656Z 00000KT 5SM BR CLR 08/07 A3026 RMK AO2 SLP250 T00830072 $
 
KPAO - Palo Alto, California, USA
Distance from station: NNV 23km
Opdateret: 10/12/2018 05:47
NOT Current
Delvist skyet
Delvist skyet
 Vind retning varies
Vind: varies 7 km/h
Temperatur: 9°C
Wind Chill: 8°C
Dugpunkt: 7°C
Fugtighed: 87%
Barometer: 1025.4 hPa
Clouds: Delvist skyet
Visibility: 16 km
Cloud details: Delvist skyet 6096 m
2018/12/10 04:47 KPAO 100447Z VRB04KT 10SM SCT200 09/07 A3028 RMK LAST
KRHV - San Jose/Reid, California, USA
Distance from station: ØNØ 19km
Opdateret: 10/12/2018 06:54
Delvist skyet
Delvist skyet
 Vind retning calm
Vind: Vindstille
Temperatur: 9°C
Dugpunkt: 7°C
Fugtighed: 87%
Barometer: 1024.4 hPa
Clouds: Delvist skyet
Visibility: 16 km
Cloud details: Delvist skyet 3048 m
2018/12/10 05:54 KRHV 100554Z 00000KT 10SM SCT100 09/07 A3025
 
KOAK - Oakland, California, USA
Distance from station: NNV 50km
Opdateret: 10/12/2018 07:53
Few Clouds
Few Clouds
 Vind retning NØ
Vind: NØ 9 km/h
Temperatur: 7°C
Wind Chill: 6°C
Dugpunkt: 6°C
Fugtighed: 93%
Barometer: 1025.1 hPa
Clouds: Few Clouds
Visibility: 11 km
Cloud details: Few Clouds 6096 m
2018/12/10 06:53 KOAK 100653Z 04005KT 7SM FEW200 07/06 A3027 RMK AO2 SLP250 T00720061
KSQL - San Carlos Airpo, California, USA
Distance from station: NV 34km
Opdateret: 10/12/2018 07:55
Mist, Klart
Mist, Klart
 Vind retning VNV
Vind: VNV 6 km/h
Temperatur: 8°C
Dugpunkt: 7°C
Fugtighed: 93%
Barometer: 1024.7 hPa
Oversigt: Mist
Clouds: Klart
Visibility: 6 km
2018/12/10 06:55 KSQL 100655Z AUTO 30003KT 4SM BR CLR 08/07 A3026 RMK AO2
 
KSFO - San Francisco, California, USA
Distance from station: NV 49km
Opdateret: 10/12/2018 07:56
Mist, Few clouds
Mist, Few clouds
 Vind retning Ø
Vind: Ø 6 km/h
Temperatur: 10°C
Dugpunkt: 8°C
Fugtighed: 88%
Barometer: 1024.4 hPa
Oversigt: Mist
Clouds: Few Clouds
Visibility: 10 km
Cloud details: Few Clouds 457 m
Few Clouds 4572 m
2018/12/10 06:56 KSFO 100656Z 09003KT 6SM BR FEW015 FEW150 10/08 A3025 RMK AO2 SLP243 T01000078
KE16 - San Martin, California, USA
Distance from station: ØSØ 43km
Opdateret: 10/12/2018 07:30
Mist, Few clouds
Mist, Few clouds
 Vind retning calm
Vind: Vindstille
Temperatur: 7°C
Dugpunkt: 7°C
Fugtighed: 100%
Barometer: 1025.1 hPa
Oversigt: Mist
Clouds: Few Clouds
Visibility: 6 km
Cloud details: Few Clouds 518 m
2018/12/10 06:30 KE16 100630Z AUTO 00000KT 4SM BR FEW017 07/07 A3027 RMK AO2
 
KWVI - Watsonville, California, USA
Distance from station: SSØ 44km
Opdateret: 10/12/2018 07:53
Klart
Klart
 Vind retning calm
Vind: Vindstille
Temperatur: 8°C
Dugpunkt: 6°C
Fugtighed: 87%
Barometer: 1024 hPa
Clouds: Klart
Visibility: 14 km
2018/12/10 06:53 KWVI 100653Z AUTO 00000KT 9SM CLR 08/06 A3024 RMK AO2 SLP241 T00830061
KHAF - Half Moon Bay, California, USA
Distance from station: VNV 50km
Opdateret: 10/12/2018 07:55
Klart
Klart
 Vind retning calm
Vind: Vindstille
Temperatur: 8°C
Dugpunkt: 6°C
Fugtighed: 87%
Barometer: 1024.4 hPa
Clouds: Klart
Visibility: 16 km
2018/12/10 06:55 KHAF 100655Z AUTO 00000KT 10SM CLR 08/06 A3025 RMK AO2
 
KHWD - Hayward, California, USA
Distance from station: N 44km
Opdateret: 10/12/2018 07:54
Mist, Klart
Mist, Klart
 Vind retning NØ
Vind: NØ 11 km/h
Temperatur: 9°C
Wind Chill: 7°C
Dugpunkt: 7°C
Fugtighed: 87%
Barometer: 1024.7 hPa
Oversigt: Mist
Clouds: Klart
Visibility: 8 km
2018/12/10 06:54 KHWD 100654Z AUTO 04006KT 5SM BR CLR 09/07 A3026 RMK AO2 SLP257 T00890067
KLVK - Livermore, California, USA
Distance from station: NNØ 51km
Opdateret: 10/12/2018 07:53
Fog, Overskyet
Fog, Overskyet
 Vind retning Ø
Vind: Ø 7 km/h
Temperatur: 7°C
Wind Chill: 6°C
Dugpunkt: 6°C
Fugtighed: 93%
Barometer: 1024.7 hPa
Oversigt: Fog
Clouds: Overskyet
Visibility: 0.4 km
Cloud details: Overskyet 91 m
2018/12/10 06:53 KLVK 100653Z AUTO 08004KT 1/4SM FG OVC003 07/06 A3026 RMK AO2 SLP246 T00670061